createdAt,value
2022-11-22T00:00:45.735Z,88.05
2022-11-22T00:03:12.741Z,83.38
2022-11-22T00:05:40.045Z,89.30
2022-11-22T00:08:07.787Z,87.10
2022-11-22T00:10:34.910Z,80.40
2022-11-22T00:13:03.271Z,88.88
2022-11-22T00:15:30.786Z,92.55
2022-11-22T00:17:58.064Z,87.75
2022-11-22T00:20:25.555Z,78.82
2022-11-22T00:22:53.116Z,101.63
2022-11-22T00:25:20.147Z,102.03
2022-11-22T00:27:47.281Z,86.20
2022-11-22T00:30:14.489Z,103.53
2022-11-22T00:32:41.467Z,89.95
2022-11-22T00:35:08.874Z,86.10
2022-11-22T00:37:35.816Z,85.93
2022-11-22T00:40:02.921Z,95.30
2022-11-22T00:42:29.974Z,86.25
2022-11-22T00:44:56.996Z,91.90
2022-11-22T00:47:24.111Z,79.07
2022-11-22T00:49:51.150Z,84.75
2022-11-22T00:52:18.005Z,75.30
2022-11-22T00:54:48.823Z,90.32
2022-11-22T00:57:20.130Z,84.22
2022-11-22T00:59:52.242Z,87.55
2022-11-22T01:02:19.173Z,158.98
2022-11-22T01:04:46.204Z,214.77
2022-11-22T01:07:16.143Z,133.30
2022-11-22T01:09:43.135Z,81.72
2022-11-22T01:12:10.111Z,86.03
2022-11-22T01:14:37.041Z,103.47
2022-11-22T01:17:04.376Z,98.80
2022-11-22T01:19:31.439Z,100.60
2022-11-22T01:21:59.145Z,90.53
2022-11-22T01:24:26.164Z,106.72
2022-11-22T01:26:53.482Z,106.88
2022-11-22T01:29:20.407Z,96.60
2022-11-22T01:31:47.436Z,97.22
2022-11-22T01:34:14.922Z,81.78
2022-11-22T01:36:41.967Z,86.88
2022-11-22T01:39:08.993Z,86.65
2022-11-22T01:41:36.293Z,80.72
2022-11-22T01:44:32.717Z,93.85
2022-11-22T01:47:13.969Z,84.57
2022-11-22T01:49:43.735Z,83.88
2022-11-22T01:52:18.942Z,87.43
2022-11-22T01:55:07.945Z,81.05
2022-11-22T01:57:39.085Z,84.38
2022-11-22T02:00:10.278Z,80.05
2022-11-22T02:02:38.076Z,84.35
2022-11-22T02:05:10.273Z,80.25
2022-11-22T02:07:45.688Z,79.15
2022-11-22T02:10:13.673Z,77.47
2022-11-22T02:12:41.351Z,85.25
2022-11-22T02:15:08.980Z,80.63
2022-11-22T02:17:35.895Z,82.25
2022-11-22T02:20:04.628Z,78.70
2022-11-22T02:22:50.020Z,79.72
2022-11-22T02:25:28.133Z,74.85
2022-11-22T02:27:55.449Z,76.68
2022-11-22T02:30:22.858Z,78.00
2022-11-22T02:32:49.988Z,81.82
2022-11-22T02:35:24.104Z,83.07
2022-11-22T02:37:56.977Z,76.63
2022-11-22T02:40:25.738Z,87.22
2022-11-22T02:43:17.556Z,78.57
2022-11-22T02:45:44.557Z,78.25
2022-11-22T02:48:17.403Z,78.15
2022-11-22T02:50:45.284Z,82.28
2022-11-22T02:53:13.477Z,70.25
2022-11-22T02:55:40.991Z,93.40
2022-11-22T02:58:08.461Z,77.43
2022-11-22T03:00:37.489Z,91.13
2022-11-22T03:03:04.650Z,89.55
2022-11-22T03:05:31.786Z,74.35
2022-11-22T03:08:01.939Z,81.32
2022-11-22T03:10:28.887Z,74.65
2022-11-22T03:12:58.018Z,79.57
2022-11-22T03:15:24.931Z,86.85
2022-11-22T03:17:58.321Z,86.38
2022-11-22T03:20:25.700Z,83.60
2022-11-22T03:22:52.874Z,88.45
2022-11-22T03:25:20.001Z,93.28
2022-11-22T03:27:49.598Z,81.90
2022-11-22T03:30:16.749Z,75.68
2022-11-22T03:32:43.878Z,90.10
2022-11-22T03:35:11.243Z,93.40
2022-11-22T03:37:38.469Z,83.10
2022-11-22T03:40:06.146Z,86.68
2022-11-22T03:42:33.123Z,81.20
2022-11-22T03:45:00.067Z,84.95
2022-11-22T03:47:26.962Z,86.32
2022-11-22T03:49:54.281Z,87.78
2022-11-22T03:52:21.241Z,81.07
2022-11-22T03:54:48.214Z,82.97
2022-11-22T03:57:17.323Z,87.65
2022-11-22T03:59:44.424Z,91.40
2022-11-22T04:02:11.433Z,82.50
2022-11-22T04:04:38.441Z,89.88
2022-11-22T04:07:07.430Z,73.93
2022-11-22T04:09:34.620Z,88.28
2022-11-22T04:12:01.891Z,82.75
2022-11-22T04:14:47.369Z,80.38
2022-11-22T04:17:14.882Z,79.28
2022-11-22T04:20:01.930Z,82.85
2022-11-22T04:22:28.874Z,91.20
2022-11-22T04:25:14.408Z,89.95
2022-11-22T04:27:41.755Z,84.93
2022-11-22T04:30:08.958Z,82.15
2022-11-22T04:32:48.058Z,96.18
2022-11-22T04:35:16.809Z,92.70
2022-11-22T04:37:43.905Z,80.57
2022-11-22T04:40:11.128Z,95.30
2022-11-22T04:42:56.493Z,90.30
2022-11-22T04:45:23.591Z,93.35
2022-11-22T04:47:59.358Z,88.93
2022-11-22T04:50:48.441Z,90.97
2022-11-22T04:53:17.321Z,83.57
2022-11-22T04:55:47.042Z,95.07
2022-11-22T04:58:14.835Z,99.63
2022-11-22T05:00:41.935Z,112.07
2022-11-22T05:03:09.066Z,106.53
2022-11-22T05:05:41.497Z,112.22
2022-11-22T05:08:09.925Z,107.10
2022-11-22T05:10:56.495Z,98.88
2022-11-22T05:13:32.761Z,99.35
2022-11-22T05:16:01.013Z,106.05
2022-11-22T05:18:28.887Z,109.20
2022-11-22T05:20:56.340Z,106.32
2022-11-22T05:23:42.836Z,112.65
2022-11-22T05:26:11.036Z,118.45
2022-11-22T05:28:39.556Z,117.22
2022-11-22T05:31:18.420Z,113.88
2022-11-22T05:33:46.754Z,121.97
2022-11-22T05:36:13.804Z,113.32
2022-11-22T05:38:42.325Z,116.95
2022-11-22T05:41:11.609Z,113.00
2022-11-22T05:43:39.265Z,112.15
2022-11-22T05:46:14.598Z,114.93
2022-11-22T05:48:45.933Z,125.72
2022-11-22T05:51:17.332Z,121.43
2022-11-22T05:53:45.267Z,139.63
2022-11-22T05:56:15.315Z,122.43
2022-11-22T05:58:42.814Z,119.65
2022-11-22T06:01:16.383Z,119.82
2022-11-22T06:03:44.159Z,116.30
2022-11-22T06:06:11.769Z,119.82
2022-11-22T06:08:47.060Z,130.68
2022-11-22T06:11:25.895Z,128.57
2022-11-22T06:13:55.806Z,134.82
2022-11-22T06:16:23.288Z,115.00
2022-11-22T06:18:50.776Z,134.52
2022-11-22T06:21:20.813Z,145.05
2022-11-22T06:23:47.766Z,126.82
2022-11-22T06:26:17.971Z,131.45
2022-11-22T06:28:46.312Z,161.50
2022-11-22T06:31:14.295Z,155.05
2022-11-22T06:33:42.317Z,138.35
2022-11-22T06:36:14.907Z,143.32
2022-11-22T06:38:43.229Z,136.10
2022-11-22T06:41:15.940Z,135.63
2022-11-22T06:43:48.783Z,117.63
2022-11-22T06:46:22.478Z,135.55
2022-11-22T06:48:50.245Z,149.13
2022-11-22T06:51:20.447Z,132.35
2022-11-22T06:53:49.340Z,156.27
2022-11-22T06:56:21.093Z,140.32
2022-11-22T06:58:49.834Z,150.30
2022-11-22T07:01:19.664Z,146.98
2022-11-22T07:03:47.886Z,174.37
2022-11-22T07:06:17.302Z,147.95
2022-11-22T07:08:45.201Z,161.73
2022-11-22T07:11:20.641Z,190.18
2022-11-22T07:13:49.167Z,187.10
2022-11-22T07:16:19.830Z,200.18
2022-11-22T07:18:48.202Z,161.85
2022-11-22T07:21:23.283Z,267.55
2022-11-22T07:23:52.812Z,167.88
2022-11-22T07:26:21.567Z,171.75
2022-11-22T07:28:49.316Z,157.85
2022-11-22T07:31:17.618Z,155.77
2022-11-22T07:33:45.126Z,144.27
2022-11-22T07:36:13.172Z,159.98
2022-11-22T07:38:40.272Z,159.82
2022-11-22T07:41:08.668Z,176.48
2022-11-22T07:43:35.890Z,207.00
2022-11-22T07:46:06.213Z,192.52
2022-11-22T07:48:33.701Z,219.68
2022-11-22T07:51:05.980Z,229.25
2022-11-22T07:53:33.700Z,194.10
2022-11-22T07:56:05.183Z,191.90
2022-11-22T07:58:33.283Z,191.63
2022-11-22T08:01:11.738Z,200.98
2022-11-22T08:03:39.518Z,246.77
2022-11-22T08:06:08.719Z,226.63
2022-11-22T08:08:36.561Z,227.18
2022-11-22T08:11:04.576Z,191.32
2022-11-22T08:13:32.642Z,193.10
2022-11-22T08:16:06.306Z,190.13
2022-11-22T08:18:35.578Z,188.48
2022-11-22T08:21:12.475Z,153.35
2022-11-22T08:23:40.493Z,167.35
2022-11-22T08:26:09.704Z,165.10
2022-11-22T08:28:36.869Z,186.07
2022-11-22T08:31:07.570Z,209.98
2022-11-22T08:36:01.669Z,198.25
2022-11-22T08:38:28.921Z,187.95
2022-11-22T08:40:56.229Z,190.88
2022-11-22T08:43:23.237Z,186.02
2022-11-22T08:45:54.586Z,175.35
2022-11-22T08:48:22.750Z,192.55
2022-11-22T08:50:51.524Z,187.73
2022-11-22T08:53:18.699Z,183.15
2022-11-22T08:55:46.270Z,184.93
2022-11-22T08:58:13.407Z,188.98
2022-11-22T09:00:40.427Z,196.00
2022-11-22T09:03:07.559Z,190.68
2022-11-22T09:05:34.660Z,175.57
2022-11-22T09:10:48.912Z,169.93
2022-11-22T09:13:15.982Z,165.43
2022-11-22T09:15:43.269Z,163.65
2022-11-22T09:18:10.163Z,164.95
2022-11-22T09:20:37.150Z,195.85
2022-11-22T09:23:04.844Z,159.23
2022-11-22T09:25:31.929Z,162.48
2022-11-22T09:28:04.698Z,175.20
2022-11-22T09:30:31.861Z,187.70
2022-11-22T09:32:59.045Z,151.88
2022-11-22T09:35:26.574Z,149.93
2022-11-22T09:37:53.522Z,146.43
2022-11-22T09:40:20.558Z,150.60
2022-11-22T09:43:02.801Z,127.18
2022-11-22T09:45:33.661Z,124.97
2022-11-22T09:48:11.635Z,132.25
2022-11-22T09:51:02.942Z,133.18
2022-11-22T09:53:45.486Z,136.23
2022-11-22T09:56:14.057Z,125.50
2022-11-22T09:58:56.252Z,124.63
2022-11-22T10:01:32.315Z,127.07
2022-11-22T10:04:20.675Z,127.43
2022-11-22T10:06:54.016Z,121.70
2022-11-22T10:09:28.873Z,123.35
2022-11-22T10:12:03.027Z,132.13
2022-11-22T10:14:35.597Z,119.05
2022-11-22T10:17:08.285Z,122.78
2022-11-22T10:19:59.481Z,120.05
2022-11-22T10:22:29.912Z,138.50
2022-11-22T10:24:59.830Z,109.90
2022-11-22T10:27:32.809Z,138.67
2022-11-22T10:30:12.399Z,118.97
2022-11-22T10:33:01.116Z,113.65
2022-11-22T10:36:09.553Z,107.38
2022-11-22T10:38:53.060Z,99.07
2022-11-22T10:41:52.224Z,106.88
2022-11-22T10:44:31.034Z,110.75
2022-11-22T10:47:07.093Z,106.82
2022-11-22T10:49:55.133Z,113.13
2022-11-22T10:52:44.855Z,102.75
2022-11-22T10:55:40.245Z,121.00
2022-11-22T10:58:34.844Z,117.28
2022-11-22T11:01:16.695Z,113.97
2022-11-22T11:03:45.056Z,128.43
2022-11-22T11:06:43.569Z,135.43
2022-11-22T11:10:09.103Z,119.10
2022-11-22T11:12:10.994Z,105.03
2022-11-22T11:14:41.295Z,105.95
2022-11-22T11:17:08.351Z,99.28
2022-11-22T11:19:39.666Z,96.88
2022-11-22T11:22:09.684Z,105.28
2022-11-22T11:24:39.330Z,82.47
2022-11-22T11:27:07.366Z,83.07
2022-11-22T11:29:38.683Z,91.93
2022-11-22T11:32:11.800Z,133.88
2022-11-22T11:34:41.694Z,94.60
2022-11-22T11:37:24.195Z,88.90
2022-11-22T11:39:51.197Z,92.40
2022-11-22T11:42:44.533Z,93.03
2022-11-22T11:45:29.740Z,83.40
2022-11-22T11:47:56.835Z,83.85
2022-11-22T11:50:25.980Z,94.88
2022-11-22T11:53:16.453Z,80.53
2022-11-22T11:55:43.390Z,68.95
2022-11-22T11:58:22.147Z,65.20
2022-11-22T12:00:49.224Z,66.32
2022-11-22T12:03:17.954Z,67.50
2022-11-22T12:05:45.065Z,61.50
2022-11-22T12:08:32.928Z,72.22
2022-11-22T12:11:09.692Z,72.15
2022-11-22T12:14:19.694Z,82.68
2022-11-22T12:16:48.794Z,74.93
2022-11-22T12:19:39.906Z,67.68
2022-11-22T12:22:48.083Z,65.43
2022-11-22T12:25:34.004Z,71.97
2022-11-22T12:28:17.492Z,61.83
2022-11-22T12:30:46.150Z,62.30
2022-11-22T12:33:20.152Z,92.50
2022-11-22T12:35:48.913Z,76.47
2022-11-22T12:38:22.134Z,73.55
2022-11-22T12:40:52.261Z,77.32
2022-11-22T12:43:26.228Z,80.43
2022-11-22T12:45:55.914Z,80.88
2022-11-22T12:48:51.426Z,84.68
2022-11-22T12:51:18.735Z,82.97
2022-11-22T12:53:46.232Z,91.05
2022-11-22T12:56:33.889Z,85.85
2022-11-22T12:59:22.328Z,96.40
2022-11-22T13:01:55.062Z,95.00
2022-11-22T13:04:42.617Z,96.80
2022-11-22T13:07:18.210Z,93.70
2022-11-22T13:09:50.351Z,102.10
2022-11-22T13:12:23.651Z,111.22
2022-11-22T13:14:55.673Z,100.20
2022-11-22T13:17:24.415Z,91.95
2022-11-22T13:20:05.361Z,104.30
2022-11-22T13:25:32.383Z,105.43
2022-11-22T13:28:02.237Z,111.18
2022-11-22T13:30:30.929Z,101.93
2022-11-22T13:32:59.816Z,104.88
2022-11-22T13:35:32.855Z,103.75
2022-11-22T13:38:06.094Z,97.63
2022-11-22T13:40:35.418Z,108.72
2022-11-22T13:43:21.182Z,101.75
2022-11-22T13:45:58.732Z,90.75
2022-11-22T13:48:40.881Z,110.72
2022-11-22T13:51:09.792Z,92.18
2022-11-22T13:53:47.262Z,136.73
2022-11-22T13:56:17.152Z,120.43
2022-11-22T13:58:52.571Z,174.00
2022-11-22T14:01:34.914Z,287.77
2022-11-22T14:04:17.141Z,135.98
2022-11-22T14:06:54.153Z,207.48
2022-11-22T14:09:34.847Z,126.47
2022-11-22T14:12:10.971Z,143.05
2022-11-22T14:14:50.407Z,117.45
2022-11-22T14:17:51.488Z,101.45
2022-11-22T14:20:56.131Z,105.30
2022-11-22T14:23:41.482Z,111.05
2022-11-22T14:26:21.043Z,108.38
2022-11-22T14:29:20.219Z,109.80
2022-11-22T14:32:04.991Z,129.07
2022-11-22T14:34:32.432Z,118.60
2022-11-22T14:37:15.472Z,105.15
2022-11-22T14:39:45.187Z,125.55
2022-11-22T14:42:38.544Z,101.03
2022-11-22T14:45:11.633Z,130.55
2022-11-22T14:48:00.621Z,93.45
2022-11-22T14:50:33.795Z,72.38
2022-11-22T14:53:39.829Z,72.95
2022-11-22T14:56:23.489Z,81.30
2022-11-22T14:59:17.494Z,98.45
2022-11-22T15:02:06.579Z,104.60
2022-11-22T15:09:13.689Z,92.03
2022-11-22T15:09:21.752Z,93.15
2022-11-22T15:10:44.944Z,97.35
2022-11-22T15:13:50.932Z,110.13
2022-11-22T15:59:47.154Z,93.95
2022-11-22T16:02:30.515Z,91.47
2022-11-22T16:06:08.698Z,103.15
2022-11-22T16:07:52.742Z,102.05
2022-11-22T16:10:23.146Z,90.22
2022-11-22T16:12:50.893Z,114.30
2022-11-22T16:15:38.924Z,105.38
2022-11-22T16:18:27.509Z,115.25
2022-11-22T16:21:07.612Z,110.93
2022-11-22T16:23:35.732Z,132.38
2022-11-22T16:26:25.502Z,151.93
2022-11-22T16:28:54.222Z,172.60
2022-11-22T16:31:31.883Z,137.98
2022-11-22T16:33:59.251Z,135.05
2022-11-22T16:36:29.833Z,137.05
2022-11-22T16:38:56.847Z,117.90
2022-11-22T16:41:23.776Z,178.40
2022-11-22T16:43:54.361Z,163.68
2022-11-22T16:46:21.331Z,135.77
2022-11-22T16:48:48.688Z,132.20
2022-11-22T16:51:24.348Z,92.95
2022-11-22T16:53:53.638Z,85.43
2022-11-22T16:56:22.776Z,88.35
2022-11-22T16:58:50.617Z,81.22
2022-11-22T17:01:20.630Z,88.00
2022-11-22T17:03:49.193Z,86.78
2022-11-22T17:06:18.968Z,85.20
2022-11-22T17:08:51.316Z,92.40
2022-11-22T17:11:20.513Z,86.07
2022-11-22T17:13:47.498Z,87.97
2022-11-22T17:16:14.982Z,90.05
2022-11-22T17:18:41.936Z,82.93
2022-11-22T17:21:32.993Z,89.07
2022-11-22T17:24:06.938Z,94.78
2022-11-22T17:26:35.027Z,101.85
2022-11-22T17:29:02.134Z,117.80
2022-11-22T17:31:29.256Z,112.18
2022-11-22T17:33:58.266Z,101.63
2022-11-22T17:36:30.484Z,101.40
2022-11-22T17:38:58.650Z,109.85
2022-11-22T17:41:26.560Z,105.55
2022-11-22T17:43:53.935Z,116.60
2022-11-22T17:46:21.072Z,110.38
2022-11-22T17:48:59.924Z,96.07
2022-11-22T17:51:30.924Z,97.25
2022-11-22T17:54:01.348Z,105.18
2022-11-22T17:56:30.169Z,116.35
2022-11-22T17:58:57.172Z,121.75
2022-11-22T18:01:24.251Z,102.68
2022-11-22T18:03:51.681Z,107.25
2022-11-22T18:06:21.763Z,117.25
2022-11-22T18:08:48.937Z,135.63
2022-11-22T18:11:16.905Z,112.60
2022-11-22T18:13:44.340Z,116.13
2022-11-22T18:16:14.436Z,101.40
2022-11-22T18:18:56.710Z,101.20
2022-11-22T18:21:25.004Z,106.68
2022-11-22T18:23:52.068Z,113.07
2022-11-22T18:31:53.987Z,137.57
2022-11-22T18:34:22.731Z,117.95
2022-11-22T18:36:55.397Z,111.30
2022-11-22T18:39:24.213Z,107.95
2022-11-22T18:41:51.200Z,103.97
2022-11-22T18:44:18.349Z,113.30
2022-11-22T18:46:45.337Z,118.05
2022-11-22T18:49:12.176Z,115.68
2022-11-22T18:51:39.133Z,114.25
2022-11-22T18:54:06.258Z,112.93
2022-11-22T18:56:38.149Z,116.00
2022-11-22T18:59:06.567Z,103.00
2022-11-22T19:01:34.912Z,117.05
2022-11-22T19:04:03.340Z,102.47
2022-11-22T19:06:30.864Z,108.78
2022-11-22T19:08:58.188Z,118.47
2022-11-22T19:11:25.957Z,101.65
2022-11-22T19:13:53.305Z,101.05
2022-11-22T19:16:22.340Z,97.00
2022-11-22T19:18:50.171Z,103.25
2022-11-22T19:21:19.536Z,106.53
2022-11-22T19:23:47.286Z,116.20
2022-11-22T19:26:16.600Z,103.38
2022-11-22T19:28:43.629Z,99.30
2022-11-22T19:31:16.084Z,119.30
2022-11-22T19:33:43.050Z,112.90
2022-11-22T19:36:18.563Z,98.07
2022-11-22T19:38:46.278Z,94.28
2022-11-22T19:41:18.919Z,101.43
2022-11-22T19:43:46.898Z,103.70
2022-11-22T19:46:14.317Z,100.53
2022-11-22T19:48:47.293Z,95.22
2022-11-22T19:51:15.942Z,93.40
2022-11-22T19:53:43.032Z,92.40
2022-11-22T19:56:16.911Z,98.15
2022-11-22T19:58:45.105Z,103.25
2022-11-22T20:01:14.600Z,90.22
2022-11-22T20:03:42.862Z,99.25
2022-11-22T20:06:12.254Z,92.70
2022-11-22T20:08:39.615Z,101.28
2022-11-22T20:11:11.495Z,96.93
2022-11-22T20:13:41.687Z,104.80
2022-11-22T20:16:17.709Z,102.07
2022-11-22T20:18:44.760Z,119.85
2022-11-22T20:21:12.148Z,110.03
2022-11-22T20:23:39.496Z,145.50
2022-11-22T20:26:12.532Z,123.18
2022-11-22T20:28:40.811Z,134.20
2022-11-22T20:31:09.411Z,139.32
2022-11-22T20:33:38.127Z,117.95
2022-11-22T20:36:07.138Z,110.70
2022-11-22T20:38:35.698Z,109.88
2022-11-22T20:41:02.968Z,118.82
2022-11-22T20:43:34.212Z,109.90
2022-11-22T20:46:15.342Z,145.32
2022-11-22T20:48:44.593Z,160.13
2022-11-22T20:51:14.329Z,161.80
2022-11-22T20:53:42.407Z,128.15
2022-11-22T20:56:10.096Z,115.97
2022-11-22T20:58:37.177Z,151.07
2022-11-22T21:01:19.873Z,129.65
2022-11-22T21:03:47.254Z,139.35
2022-11-22T21:06:15.136Z,132.55
2022-11-22T21:08:42.131Z,132.18
2022-11-22T21:11:26.206Z,132.85
2022-11-22T21:13:53.444Z,140.70
2022-11-22T21:16:26.813Z,165.55
2022-11-22T21:18:55.832Z,168.73
2022-11-22T21:21:24.204Z,209.38
2022-11-22T21:23:59.780Z,219.70
2022-11-22T21:26:27.066Z,176.45
2022-11-22T21:28:54.063Z,158.40
2022-11-22T21:31:22.464Z,153.82
2022-11-22T21:33:49.717Z,165.63
2022-11-22T21:36:16.727Z,165.30
2022-11-22T21:38:44.494Z,166.13
2022-11-22T21:44:07.424Z,166.15
2022-11-22T21:46:34.549Z,178.07
2022-11-22T21:49:01.869Z,192.65
2022-11-22T21:51:28.866Z,188.23
2022-11-22T21:53:59.690Z,176.30
2022-11-22T21:58:53.844Z,149.77
2022-11-22T22:01:20.986Z,161.73
2022-11-22T22:03:48.073Z,171.05
2022-11-22T22:06:15.088Z,174.82
2022-11-22T22:08:42.053Z,172.93
2022-11-22T22:11:09.025Z,167.02
2022-11-22T22:13:36.288Z,162.90
2022-11-22T22:16:06.992Z,150.45
2022-11-22T22:21:06.800Z,156.80
2022-11-22T22:23:34.486Z,169.10
2022-11-22T22:26:03.187Z,148.48
2022-11-22T22:28:31.257Z,144.60
2022-11-22T22:31:06.797Z,141.63
2022-11-22T22:33:34.496Z,185.40
2022-11-22T22:36:01.500Z,166.00
2022-11-22T22:38:30.679Z,150.07
2022-11-22T22:41:02.729Z,159.65
2022-11-22T22:43:32.093Z,155.80
2022-11-22T22:46:26.884Z,145.75
2022-11-22T22:48:55.375Z,152.25
2022-11-22T22:51:32.430Z,150.85
2022-11-22T22:54:01.076Z,156.43
2022-11-22T22:56:29.956Z,154.32
2022-11-22T22:58:57.756Z,139.93
2022-11-22T23:01:26.662Z,129.70
2022-11-22T23:03:57.597Z,134.38
2022-11-22T23:06:26.669Z,131.85
2022-11-22T23:08:54.660Z,132.45
2022-11-22T23:11:43.653Z,124.07
2022-11-22T23:14:12.363Z,124.35
2022-11-22T23:16:39.957Z,125.35
2022-11-22T23:19:07.326Z,122.85
2022-11-22T23:21:34.930Z,112.88
2022-11-22T23:24:02.087Z,130.10
2022-11-22T23:26:29.181Z,131.30
2022-11-22T23:28:56.264Z,126.55
2022-11-22T23:31:23.230Z,131.10
2022-11-22T23:33:50.173Z,129.52
2022-11-22T23:36:19.469Z,129.35
2022-11-22T23:38:46.931Z,122.88
2022-11-22T23:41:15.971Z,132.10
2022-11-22T23:43:43.865Z,150.75
2022-11-22T23:46:17.996Z,126.40
2022-11-22T23:48:46.215Z,146.27
2022-11-22T23:51:13.865Z,128.13
2022-11-22T23:53:40.951Z,129.73
2022-11-22T23:56:12.312Z,131.73
2022-11-22T23:58:39.504Z,116.22
